sensor_id;sensor_type;location;lat;lon;timestamp;P1;durP1;ratioP1;P2;durP2;ratioP2
55672;SDS011;41554;45.366;20.400;2022-12-16T00:01:14;11.63;;;9.50;;
55672;SDS011;41554;45.366;20.400;2022-12-16T00:03:41;14.35;;;9.45;;
55672;SDS011;41554;45.366;20.400;2022-12-16T00:06:08;17.75;;;8.88;;
55672;SDS011;41554;45.366;20.400;2022-12-16T00:08:35;15.32;;;9.73;;
55672;SDS011;41554;45.366;20.400;2022-12-16T00:11:01;17.20;;;11.68;;
55672;SDS011;41554;45.366;20.400;2022-12-16T00:13:28;13.65;;;9.18;;
55672;SDS011;41554;45.366;20.400;2022-12-16T00:15:54;13.25;;;8.88;;
55672;SDS011;41554;45.366;20.400;2022-12-16T00:18:21;13.68;;;8.95;;
55672;SDS011;41554;45.366;20.400;2022-12-16T00:20:47;10.23;;;8.73;;
55672;SDS011;41554;45.366;20.400;2022-12-16T00:23:14;15.30;;;9.75;;
55672;SDS011;41554;45.366;20.400;2022-12-16T00:25:41;13.68;;;10.10;;
55672;SDS011;41554;45.366;20.400;2022-12-16T00:28:07;13.65;;;9.73;;
55672;SDS011;41554;45.366;20.400;2022-12-16T00:30:33;10.00;;;8.55;;
55672;SDS011;41554;45.366;20.400;2022-12-16T00:32:59;13.80;;;10.25;;
55672;SDS011;41554;45.366;20.400;2022-12-16T00:35:25;11.38;;;8.20;;
55672;SDS011;41554;45.366;20.400;2022-12-16T00:37:51;11.80;;;8.32;;
55672;SDS011;41554;45.366;20.400;2022-12-16T00:40:17;10.93;;;9.23;;
55672;SDS011;41554;45.366;20.400;2022-12-16T00:42:43;9.18;;;7.38;;
55672;SDS011;41554;45.366;20.400;2022-12-16T00:45:09;12.20;;;8.27;;
55672;SDS011;41554;45.366;20.400;2022-12-16T00:47:35;18.10;;;9.73;;
55672;SDS011;41554;45.366;20.400;2022-12-16T00:50:02;10.93;;;8.63;;
55672;SDS011;41554;45.366;20.400;2022-12-16T00:52:28;18.27;;;11.80;;
55672;SDS011;41554;45.366;20.400;2022-12-16T00:54:54;21.00;;;14.77;;
55672;SDS011;41554;45.366;20.400;2022-12-16T00:57:20;19.00;;;12.75;;
55672;SDS011;41554;45.366;20.400;2022-12-16T00:59:46;11.40;;;9.00;;
55672;SDS011;41554;45.366;20.400;2022-12-16T01:02:12;16.73;;;12.48;;
55672;SDS011;41554;45.366;20.400;2022-12-16T01:04:38;19.15;;;15.68;;
55672;SDS011;41554;45.366;20.400;2022-12-16T01:07:04;24.17;;;11.35;;
55672;SDS011;41554;45.366;20.400;2022-12-16T01:09:30;20.48;;;14.45;;
55672;SDS011;41554;45.366;20.400;2022-12-16T01:11:57;20.15;;;16.48;;
55672;SDS011;41554;45.366;20.400;2022-12-16T01:14:24;14.15;;;11.13;;
55672;SDS011;41554;45.366;20.400;2022-12-16T01:16:50;22.55;;;11.57;;
55672;SDS011;41554;45.366;20.400;2022-12-16T01:19:16;12.15;;;8.50;;
55672;SDS011;41554;45.366;20.400;2022-12-16T01:21:42;15.60;;;8.50;;
55672;SDS011;41554;45.366;20.400;2022-12-16T01:24:09;13.23;;;10.05;;
55672;SDS011;41554;45.366;20.400;2022-12-16T01:26:35;11.88;;;8.27;;
55672;SDS011;41554;45.366;20.400;2022-12-16T01:29:03;15.48;;;9.38;;
55672;SDS011;41554;45.366;20.400;2022-12-16T01:31:29;18.50;;;7.80;;
55672;SDS011;41554;45.366;20.400;2022-12-16T01:33:55;13.13;;;8.02;;
55672;SDS011;41554;45.366;20.400;2022-12-16T01:36:21;14.32;;;8.95;;
55672;SDS011;41554;45.366;20.400;2022-12-16T01:38:47;11.23;;;7.80;;
55672;SDS011;41554;45.366;20.400;2022-12-16T01:41:13;9.50;;;6.35;;
55672;SDS011;41554;45.366;20.400;2022-12-16T01:43:40;12.13;;;9.15;;
55672;SDS011;41554;45.366;20.400;2022-12-16T01:51:26;18.50;;;10.20;;
55672;SDS011;41554;45.366;20.400;2022-12-16T01:53:58;15.18;;;12.88;;
55672;SDS011;41554;45.366;20.400;2022-12-16T01:56:26;28.45;;;18.65;;
55672;SDS011;41554;45.366;20.400;2022-12-16T01:58:53;14.60;;;12.65;;
55672;SDS011;41554;45.366;20.400;2022-12-16T02:01:19;13.68;;;9.23;;
55672;SDS011;41554;45.366;20.400;2022-12-16T02:03:46;23.33;;;17.67;;
55672;SDS011;41554;45.366;20.400;2022-12-16T02:06:12;12.25;;;7.38;;
55672;SDS011;41554;45.366;20.400;2022-12-16T02:08:38;16.00;;;9.82;;
55672;SDS011;41554;45.366;20.400;2022-12-16T02:11:18;17.13;;;11.38;;
55672;SDS011;41554;45.366;20.400;2022-12-16T02:16:52;29.77;;;21.17;;
55672;SDS011;41554;45.366;20.400;2022-12-16T02:36:10;26.88;;;19.38;;
55672;SDS011;41554;45.366;20.400;2022-12-16T02:41:17;22.95;;;16.95;;
55672;SDS011;41554;45.366;20.400;2022-12-16T02:44:12;18.02;;;13.23;;
55672;SDS011;41554;45.366;20.400;2022-12-16T02:46:38;15.13;;;10.07;;
55672;SDS011;41554;45.366;20.400;2022-12-16T02:49:54;15.10;;;10.38;;
55672;SDS011;41554;45.366;20.400;2022-12-16T02:51:55;13.35;;;10.77;;
55672;SDS011;41554;45.366;20.400;2022-12-16T02:54:23;19.25;;;12.52;;
55672;SDS011;41554;45.366;20.400;2022-12-16T03:02:20;9.00;;;7.70;;
55672;SDS011;41554;45.366;20.400;2022-12-16T03:05:05;21.23;;;14.43;;
55672;SDS011;41554;45.366;20.400;2022-12-16T03:07:36;25.80;;;20.10;;
55672;SDS011;41554;45.366;20.400;2022-12-16T03:10:04;31.38;;;22.40;;
55672;SDS011;41554;45.366;20.400;2022-12-16T03:12:34;22.88;;;13.52;;
55672;SDS011;41554;45.366;20.400;2022-12-16T03:15:02;20.63;;;15.43;;
55672;SDS011;41554;45.366;20.400;2022-12-16T03:17:29;17.35;;;13.32;;
55672;SDS011;41554;45.366;20.400;2022-12-16T03:20:29;28.63;;;22.35;;
55672;SDS011;41554;45.366;20.400;2022-12-16T03:22:53;25.77;;;18.95;;
55672;SDS011;41554;45.366;20.400;2022-12-16T03:25:21;14.38;;;9.73;;
55672;SDS011;41554;45.366;20.400;2022-12-16T03:30:21;7.78;;;5.65;;
55672;SDS011;41554;45.366;20.400;2022-12-16T03:32:57;11.23;;;6.07;;
55672;SDS011;41554;45.366;20.400;2022-12-16T03:37:55;12.00;;;7.68;;
55672;SDS011;41554;45.366;20.400;2022-12-16T03:40:22;14.05;;;10.57;;
55672;SDS011;41554;45.366;20.400;2022-12-16T03:42:50;8.95;;;7.65;;
55672;SDS011;41554;45.366;20.400;2022-12-16T03:45:18;15.80;;;13.10;;
55672;SDS011;41554;45.366;20.400;2022-12-16T03:47:51;14.02;;;11.27;;
55672;SDS011;41554;45.366;20.400;2022-12-16T03:50:22;14.80;;;11.73;;
55672;SDS011;41554;45.366;20.400;2022-12-16T03:52:53;9.30;;;6.38;;
55672;SDS011;41554;45.366;20.400;2022-12-16T03:55:20;18.30;;;11.43;;
55672;SDS011;41554;45.366;20.400;2022-12-16T03:57:45;8.75;;;6.60;;
55672;SDS011;41554;45.366;20.400;2022-12-16T04:00:11;17.13;;;6.95;;
55672;SDS011;41554;45.366;20.400;2022-12-16T04:02:37;15.70;;;10.98;;
55672;SDS011;41554;45.366;20.400;2022-12-16T04:05:03;19.92;;;13.63;;
55672;SDS011;41554;45.366;20.400;2022-12-16T04:07:29;12.75;;;9.07;;
55672;SDS011;41554;45.366;20.400;2022-12-16T04:09:55;15.90;;;11.35;;
55672;SDS011;41554;45.366;20.400;2022-12-16T04:12:20;11.63;;;9.30;;
55672;SDS011;41554;45.366;20.400;2022-12-16T04:15:05;18.90;;;14.00;;
55672;SDS011;41554;45.366;20.400;2022-12-16T04:17:49;19.40;;;8.00;;
55672;SDS011;41554;45.366;20.400;2022-12-16T04:20:35;16.17;;;10.02;;
55672;SDS011;41554;45.366;20.400;2022-12-16T04:23:21;14.20;;;8.07;;
55672;SDS011;41554;45.366;20.400;2022-12-16T04:26:08;7.82;;;6.15;;
55672;SDS011;41554;45.366;20.400;2022-12-16T04:28:34;8.65;;;5.80;;
55672;SDS011;41554;45.366;20.400;2022-12-16T04:31:00;11.50;;;6.50;;
55672;SDS011;41554;45.366;20.400;2022-12-16T04:33:26;14.93;;;8.23;;
55672;SDS011;41554;45.366;20.400;2022-12-16T04:36:10;15.55;;;6.43;;
55672;SDS011;41554;45.366;20.400;2022-12-16T04:38:54;16.10;;;7.95;;
55672;SDS011;41554;45.366;20.400;2022-12-16T04:41:38;10.68;;;6.32;;
55672;SDS011;41554;45.366;20.400;2022-12-16T04:44:22;10.57;;;5.82;;
55672;SDS011;41554;45.366;20.400;2022-12-16T04:47:06;18.23;;;9.82;;
55672;SDS011;41554;45.366;20.400;2022-12-16T04:49:51;18.75;;;13.80;;
55672;SDS011;41554;45.366;20.400;2022-12-16T04:52:35;14.73;;;10.82;;
55672;SDS011;41554;45.366;20.400;2022-12-16T04:55:19;12.88;;;8.07;;
55672;SDS011;41554;45.366;20.400;2022-12-16T04:58:03;16.83;;;13.05;;
55672;SDS011;41554;45.366;20.400;2022-12-16T05:00:48;14.45;;;7.30;;
55672;SDS011;41554;45.366;20.400;2022-12-16T05:03:33;9.85;;;4.78;;
55672;SDS011;41554;45.366;20.400;2022-12-16T05:06:18;7.13;;;5.95;;
55672;SDS011;41554;45.366;20.400;2022-12-16T05:09:02;17.67;;;5.82;;
55672;SDS011;41554;45.366;20.400;2022-12-16T05:11:47;13.27;;;6.63;;
55672;SDS011;41554;45.366;20.400;2022-12-16T05:14:32;15.77;;;8.02;;
55672;SDS011;41554;45.366;20.400;2022-12-16T05:17:16;11.65;;;8.32;;
55672;SDS011;41554;45.366;20.400;2022-12-16T05:20:00;13.40;;;8.60;;
55672;SDS011;41554;45.366;20.400;2022-12-16T05:22:45;8.57;;;6.07;;
55672;SDS011;41554;45.366;20.400;2022-12-16T05:25:29;10.73;;;8.65;;
55672;SDS011;41554;45.366;20.400;2022-12-16T05:28:13;18.58;;;11.13;;
55672;SDS011;41554;45.366;20.400;2022-12-16T05:30:57;22.98;;;12.98;;
55672;SDS011;41554;45.366;20.400;2022-12-16T05:33:41;12.73;;;8.65;;
55672;SDS011;41554;45.366;20.400;2022-12-16T05:36:25;19.67;;;13.43;;
55672;SDS011;41554;45.366;20.400;2022-12-16T05:39:09;16.13;;;9.07;;
55672;SDS011;41554;45.366;20.400;2022-12-16T05:41:53;13.23;;;7.00;;
55672;SDS011;41554;45.366;20.400;2022-12-16T05:44:38;8.05;;;5.50;;
55672;SDS011;41554;45.366;20.400;2022-12-16T05:47:22;9.35;;;5.95;;
55672;SDS011;41554;45.366;20.400;2022-12-16T05:50:06;9.40;;;5.28;;
55672;SDS011;41554;45.366;20.400;2022-12-16T05:52:51;9.20;;;6.82;;
55672;SDS011;41554;45.366;20.400;2022-12-16T05:55:37;9.68;;;6.28;;
55672;SDS011;41554;45.366;20.400;2022-12-16T05:58:22;9.60;;;6.85;;
55672;SDS011;41554;45.366;20.400;2022-12-16T06:01:06;9.77;;;5.90;;
55672;SDS011;41554;45.366;20.400;2022-12-16T06:03:51;7.18;;;5.65;;
55672;SDS011;41554;45.366;20.400;2022-12-16T06:06:35;12.35;;;5.63;;
55672;SDS011;41554;45.366;20.400;2022-12-16T06:09:19;9.25;;;6.45;;
55672;SDS011;41554;45.366;20.400;2022-12-16T06:12:03;8.27;;;5.50;;
55672;SDS011;41554;45.366;20.400;2022-12-16T06:14:47;7.57;;;6.45;;
55672;SDS011;41554;45.366;20.400;2022-12-16T06:17:32;10.98;;;6.15;;
55672;SDS011;41554;45.366;20.400;2022-12-16T06:20:15;14.05;;;7.97;;
55672;SDS011;41554;45.366;20.400;2022-12-16T06:23:00;9.43;;;7.38;;
55672;SDS011;41554;45.366;20.400;2022-12-16T06:25:44;9.35;;;5.60;;
55672;SDS011;41554;45.366;20.400;2022-12-16T06:28:28;12.18;;;8.15;;
55672;SDS011;41554;45.366;20.400;2022-12-16T06:31:12;11.93;;;8.45;;
55672;SDS011;41554;45.366;20.400;2022-12-16T06:33:57;25.80;;;19.35;;
55672;SDS011;41554;45.366;20.400;2022-12-16T06:36:41;31.73;;;18.35;;
55672;SDS011;41554;45.366;20.400;2022-12-16T06:39:26;39.17;;;25.70;;
55672;SDS011;41554;45.366;20.400;2022-12-16T06:42:10;14.23;;;11.45;;
55672;SDS011;41554;45.366;20.400;2022-12-16T06:44:54;18.95;;;11.40;;
55672;SDS011;41554;45.366;20.400;2022-12-16T06:47:38;30.33;;;21.48;;
55672;SDS011;41554;45.366;20.400;2022-12-16T06:50:24;21.23;;;15.80;;
55672;SDS011;41554;45.366;20.400;2022-12-16T06:53:09;23.17;;;8.68;;
55672;SDS011;41554;45.366;20.400;2022-12-16T06:55:52;9.32;;;6.68;;
55672;SDS011;41554;45.366;20.400;2022-12-16T06:58:36;8.55;;;6.53;;
55672;SDS011;41554;45.366;20.400;2022-12-16T07:01:21;10.82;;;6.13;;
55672;SDS011;41554;45.366;20.400;2022-12-16T07:04:05;8.98;;;6.18;;
55672;SDS011;41554;45.366;20.400;2022-12-16T07:06:49;14.43;;;7.97;;
55672;SDS011;41554;45.366;20.400;2022-12-16T07:09:33;16.05;;;7.38;;
55672;SDS011;41554;45.366;20.400;2022-12-16T07:12:17;13.20;;;9.30;;
55672;SDS011;41554;45.366;20.400;2022-12-16T07:15:01;11.80;;;8.07;;
55672;SDS011;41554;45.366;20.400;2022-12-16T07:17:45;15.00;;;7.22;;
55672;SDS011;41554;45.366;20.400;2022-12-16T07:20:29;21.27;;;8.50;;
55672;SDS011;41554;45.366;20.400;2022-12-16T07:23:13;11.23;;;8.70;;
55672;SDS011;41554;45.366;20.400;2022-12-16T07:25:57;12.63;;;7.28;;
55672;SDS011;41554;45.366;20.400;2022-12-16T07:28:41;11.13;;;7.82;;
55672;SDS011;41554;45.366;20.400;2022-12-16T07:31:25;20.20;;;12.02;;
55672;SDS011;41554;45.366;20.400;2022-12-16T07:34:09;15.40;;;7.40;;
55672;SDS011;41554;45.366;20.400;2022-12-16T07:36:53;10.38;;;7.60;;
55672;SDS011;41554;45.366;20.400;2022-12-16T07:39:37;12.45;;;8.60;;
55672;SDS011;41554;45.366;20.400;2022-12-16T07:42:22;10.00;;;7.10;;
55672;SDS011;41554;45.366;20.400;2022-12-16T07:45:07;14.35;;;8.73;;
55672;SDS011;41554;45.366;20.400;2022-12-16T07:47:51;8.75;;;7.25;;
55672;SDS011;41554;45.366;20.400;2022-12-16T07:50:36;9.68;;;6.20;;
55672;SDS011;41554;45.366;20.400;2022-12-16T07:53:22;12.35;;;8.07;;
55672;SDS011;41554;45.366;20.400;2022-12-16T07:56:06;19.05;;;11.70;;
55672;SDS011;41554;45.366;20.400;2022-12-16T07:58:51;27.23;;;19.35;;
55672;SDS011;41554;45.366;20.400;2022-12-16T08:01:49;22.60;;;9.20;;
55672;SDS011;41554;45.366;20.400;2022-12-16T08:04:33;14.98;;;10.18;;
55672;SDS011;41554;45.366;20.400;2022-12-16T08:07:18;13.75;;;9.95;;
55672;SDS011;41554;45.366;20.400;2022-12-16T08:10:02;16.55;;;11.15;;
55672;SDS011;41554;45.366;20.400;2022-12-16T08:12:47;13.27;;;8.40;;
55672;SDS011;41554;45.366;20.400;2022-12-16T08:15:32;14.55;;;9.63;;
55672;SDS011;41554;45.366;20.400;2022-12-16T08:18:16;27.10;;;14.15;;
55672;SDS011;41554;45.366;20.400;2022-12-16T08:21:00;11.00;;;8.48;;
55672;SDS011;41554;45.366;20.400;2022-12-16T08:23:45;13.07;;;10.13;;
55672;SDS011;41554;45.366;20.400;2022-12-16T08:26:29;16.17;;;9.82;;
55672;SDS011;41554;45.366;20.400;2022-12-16T08:29:14;8.77;;;6.50;;
55672;SDS011;41554;45.366;20.400;2022-12-16T08:31:58;10.93;;;7.13;;
55672;SDS011;41554;45.366;20.400;2022-12-16T08:34:43;13.65;;;9.15;;
55672;SDS011;41554;45.366;20.400;2022-12-16T08:37:28;13.95;;;7.05;;
55672;SDS011;41554;45.366;20.400;2022-12-16T08:40:12;10.10;;;7.57;;
55672;SDS011;41554;45.366;20.400;2022-12-16T08:42:57;6.97;;;5.18;;
55672;SDS011;41554;45.366;20.400;2022-12-16T08:45:42;8.43;;;6.05;;
55672;SDS011;41554;45.366;20.400;2022-12-16T08:48:26;12.07;;;7.88;;
55672;SDS011;41554;45.366;20.400;2022-12-16T08:51:11;7.93;;;5.55;;
55672;SDS011;41554;45.366;20.400;2022-12-16T08:53:55;10.98;;;7.63;;
55672;SDS011;41554;45.366;20.400;2022-12-16T08:56:40;11.52;;;7.00;;
55672;SDS011;41554;45.366;20.400;2022-12-16T08:59:25;14.10;;;7.07;;
55672;SDS011;41554;45.366;20.400;2022-12-16T09:02:10;12.32;;;8.88;;
55672;SDS011;41554;45.366;20.400;2022-12-16T09:04:54;11.13;;;7.00;;
55672;SDS011;41554;45.366;20.400;2022-12-16T09:07:39;14.68;;;8.38;;
55672;SDS011;41554;45.366;20.400;2022-12-16T09:10:24;10.48;;;7.72;;
55672;SDS011;41554;45.366;20.400;2022-12-16T09:13:12;9.10;;;7.72;;
55672;SDS011;41554;45.366;20.400;2022-12-16T09:15:58;12.48;;;8.95;;
55672;SDS011;41554;45.366;20.400;2022-12-16T09:18:43;11.65;;;7.32;;
55672;SDS011;41554;45.366;20.400;2022-12-16T09:21:27;10.68;;;6.75;;
55672;SDS011;41554;45.366;20.400;2022-12-16T09:24:12;12.93;;;6.50;;
55672;SDS011;41554;45.366;20.400;2022-12-16T09:26:56;11.43;;;7.75;;
55672;SDS011;41554;45.366;20.400;2022-12-16T09:29:42;10.18;;;7.53;;
55672;SDS011;41554;45.366;20.400;2022-12-16T09:32:27;20.15;;;13.30;;
55672;SDS011;41554;45.366;20.400;2022-12-16T09:35:11;13.25;;;10.52;;
55672;SDS011;41554;45.366;20.400;2022-12-16T09:37:56;12.35;;;11.05;;
55672;SDS011;41554;45.366;20.400;2022-12-16T09:40:41;18.95;;;11.10;;
55672;SDS011;41554;45.366;20.400;2022-12-16T09:43:34;14.77;;;10.40;;
55672;SDS011;41554;45.366;20.400;2022-12-16T09:46:44;22.55;;;11.27;;
55672;SDS011;41554;45.366;20.400;2022-12-16T09:52:25;13.15;;;9.55;;
55672;SDS011;41554;45.366;20.400;2022-12-16T09:55:16;23.77;;;11.23;;
55672;SDS011;41554;45.366;20.400;2022-12-16T09:58:11;33.53;;;13.07;;
55672;SDS011;41554;45.366;20.400;2022-12-16T10:00:57;10.95;;;7.75;;
55672;SDS011;41554;45.366;20.400;2022-12-16T10:03:43;13.00;;;8.82;;
55672;SDS011;41554;45.366;20.400;2022-12-16T10:06:35;14.60;;;9.27;;
55672;SDS011;41554;45.366;20.400;2022-12-16T10:12:28;16.85;;;10.63;;
55672;SDS011;41554;45.366;20.400;2022-12-16T10:17:58;22.00;;;11.20;;
55672;SDS011;41554;45.366;20.400;2022-12-16T10:20:48;15.55;;;9.77;;
55672;SDS011;41554;45.366;20.400;2022-12-16T10:23:53;16.05;;;9.30;;
55672;SDS011;41554;45.366;20.400;2022-12-16T10:29:28;16.15;;;12.07;;
55672;SDS011;41554;45.366;20.400;2022-12-16T10:32:18;18.38;;;11.70;;
55672;SDS011;41554;45.366;20.400;2022-12-16T10:35:19;19.08;;;12.10;;
55672;SDS011;41554;45.366;20.400;2022-12-16T10:38:05;17.92;;;10.93;;
55672;SDS011;41554;45.366;20.400;2022-12-16T10:40:52;15.00;;;9.38;;
55672;SDS011;41554;45.366;20.400;2022-12-16T10:43:54;18.63;;;13.02;;
55672;SDS011;41554;45.366;20.400;2022-12-16T10:46:40;17.23;;;12.95;;
55672;SDS011;41554;45.366;20.400;2022-12-16T10:49:25;18.23;;;13.65;;
55672;SDS011;41554;45.366;20.400;2022-12-16T10:52:12;20.05;;;10.68;;
55672;SDS011;41554;45.366;20.400;2022-12-16T10:55:11;13.27;;;7.68;;
55672;SDS011;41554;45.366;20.400;2022-12-16T11:01:21;32.30;;;9.43;;
55672;SDS011;41554;45.366;20.400;2022-12-16T11:13:27;18.17;;;11.73;;
55672;SDS011;41554;45.366;20.400;2022-12-16T11:16:33;25.30;;;15.52;;
55672;SDS011;41554;45.366;20.400;2022-12-16T11:19:26;28.80;;;13.77;;
55672;SDS011;41554;45.366;20.400;2022-12-16T11:22:14;20.35;;;16.50;;
55672;SDS011;41554;45.366;20.400;2022-12-16T11:28:02;15.18;;;9.50;;
55672;SDS011;41554;45.366;20.400;2022-12-16T11:30:49;31.67;;;16.52;;
55672;SDS011;41554;45.366;20.400;2022-12-16T11:36:22;32.13;;;17.23;;
55672;SDS011;41554;45.366;20.400;2022-12-16T11:39:15;19.70;;;15.32;;
55672;SDS011;41554;45.366;20.400;2022-12-16T11:42:02;22.25;;;16.63;;
55672;SDS011;41554;45.366;20.400;2022-12-16T11:44:48;17.95;;;11.82;;
55672;SDS011;41554;45.366;20.400;2022-12-16T11:50:34;15.25;;;11.73;;
55672;SDS011;41554;45.366;20.400;2022-12-16T11:56:35;15.40;;;10.70;;
55672;SDS011;41554;45.366;20.400;2022-12-16T11:59:23;11.77;;;9.23;;
55672;SDS011;41554;45.366;20.400;2022-12-16T12:03:03;17.02;;;10.48;;
55672;SDS011;41554;45.366;20.400;2022-12-16T12:08:47;16.38;;;12.90;;
55672;SDS011;41554;45.366;20.400;2022-12-16T12:11:50;25.83;;;12.85;;
55672;SDS011;41554;45.366;20.400;2022-12-16T12:15:15;12.02;;;9.25;;
55672;SDS011;41554;45.366;20.400;2022-12-16T12:18:13;12.98;;;9.52;;
55672;SDS011;41554;45.366;20.400;2022-12-16T12:30:18;16.33;;;11.48;;
55672;SDS011;41554;45.366;20.400;2022-12-16T12:36:22;12.45;;;10.65;;
55672;SDS011;41554;45.366;20.400;2022-12-16T12:39:15;13.30;;;9.43;;
55672;SDS011;41554;45.366;20.400;2022-12-16T12:52:01;21.10;;;10.98;;
55672;SDS011;41554;45.366;20.400;2022-12-16T12:57:58;14.60;;;11.00;;
55672;SDS011;41554;45.366;20.400;2022-12-16T13:00:45;11.55;;;10.32;;
55672;SDS011;41554;45.366;20.400;2022-12-16T13:06:30;19.20;;;13.95;;
55672;SDS011;41554;45.366;20.400;2022-12-16T13:15:05;24.98;;;16.60;;
55672;SDS011;41554;45.366;20.400;2022-12-16T13:20:53;11.90;;;9.30;;
55672;SDS011;41554;45.366;20.400;2022-12-16T13:23:40;24.50;;;12.48;;
55672;SDS011;41554;45.366;20.400;2022-12-16T13:26:26;18.30;;;13.00;;
55672;SDS011;41554;45.366;20.400;2022-12-16T13:34:59;20.38;;;11.75;;
55672;SDS011;41554;45.366;20.400;2022-12-16T13:55:29;15.20;;;9.57;;
55672;SDS011;41554;45.366;20.400;2022-12-16T13:58:38;13.52;;;11.35;;
55672;SDS011;41554;45.366;20.400;2022-12-16T14:01:46;13.60;;;9.75;;
55672;SDS011;41554;45.366;20.400;2022-12-16T14:04:36;15.40;;;9.07;;
55672;SDS011;41554;45.366;20.400;2022-12-16T14:07:29;20.48;;;10.27;;
55672;SDS011;41554;45.366;20.400;2022-12-16T14:25:21;13.10;;;9.60;;
55672;SDS011;41554;45.366;20.400;2022-12-16T14:31:04;17.08;;;10.15;;
55672;SDS011;41554;45.366;20.400;2022-12-16T14:33:52;22.73;;;13.65;;
55672;SDS011;41554;45.366;20.400;2022-12-16T14:36:38;26.80;;;19.33;;
55672;SDS011;41554;45.366;20.400;2022-12-16T14:39:27;20.27;;;14.55;;
55672;SDS011;41554;45.366;20.400;2022-12-16T14:42:20;18.57;;;10.87;;
55672;SDS011;41554;45.366;20.400;2022-12-16T14:48:20;22.67;;;15.23;;
55672;SDS011;41554;45.366;20.400;2022-12-16T14:54:30;22.15;;;16.52;;
55672;SDS011;41554;45.366;20.400;2022-12-16T14:57:22;27.48;;;15.38;;
55672;SDS011;41554;45.366;20.400;2022-12-16T15:02:52;16.38;;;10.27;;
55672;SDS011;41554;45.366;20.400;2022-12-16T15:05:37;18.50;;;12.40;;
55672;SDS011;41554;45.366;20.400;2022-12-16T15:08:23;22.20;;;12.00;;
55672;SDS011;41554;45.366;20.400;2022-12-16T15:11:28;25.23;;;18.02;;
55672;SDS011;41554;45.366;20.400;2022-12-16T15:14:14;22.13;;;12.50;;
55672;SDS011;41554;45.366;20.400;2022-12-16T15:17:00;19.77;;;14.65;;
55672;SDS011;41554;45.366;20.400;2022-12-16T15:19:47;38.42;;;16.48;;
55672;SDS011;41554;45.366;20.400;2022-12-16T15:22:32;27.90;;;16.40;;
55672;SDS011;41554;45.366;20.400;2022-12-16T15:25:23;23.23;;;14.18;;
55672;SDS011;41554;45.366;20.400;2022-12-16T15:28:36;27.70;;;16.58;;
55672;SDS011;41554;45.366;20.400;2022-12-16T15:31:24;39.42;;;24.30;;
55672;SDS011;41554;45.366;20.400;2022-12-16T15:37:03;38.00;;;27.08;;
55672;SDS011;41554;45.366;20.400;2022-12-16T15:39:47;22.17;;;17.08;;
55672;SDS011;41554;45.366;20.400;2022-12-16T15:42:32;29.80;;;19.58;;
55672;SDS011;41554;45.366;20.400;2022-12-16T15:48:05;25.75;;;10.65;;
55672;SDS011;41554;45.366;20.400;2022-12-16T15:50:52;13.80;;;9.90;;
55672;SDS011;41554;45.366;20.400;2022-12-16T15:53:36;16.75;;;11.50;;
55672;SDS011;41554;45.366;20.400;2022-12-16T15:56:40;26.30;;;12.52;;
55672;SDS011;41554;45.366;20.400;2022-12-16T15:59:26;12.73;;;9.50;;
55672;SDS011;41554;45.366;20.400;2022-12-16T16:02:32;21.50;;;15.27;;
55672;SDS011;41554;45.366;20.400;2022-12-16T16:05:20;34.38;;;15.75;;
55672;SDS011;41554;45.366;20.400;2022-12-16T16:08:05;25.63;;;16.70;;
55672;SDS011;41554;45.366;20.400;2022-12-16T16:10:50;22.15;;;15.60;;
55672;SDS011;41554;45.366;20.400;2022-12-16T16:13:34;20.08;;;14.30;;
55672;SDS011;41554;45.366;20.400;2022-12-16T16:16:18;15.57;;;10.73;;
55672;SDS011;41554;45.366;20.400;2022-12-16T16:19:02;17.58;;;10.95;;
55672;SDS011;41554;45.366;20.400;2022-12-16T16:21:52;19.05;;;10.45;;
55672;SDS011;41554;45.366;20.400;2022-12-16T16:24:36;13.15;;;9.18;;
55672;SDS011;41554;45.366;20.400;2022-12-16T16:27:20;21.17;;;11.32;;
55672;SDS011;41554;45.366;20.400;2022-12-16T16:30:04;16.65;;;10.48;;
55672;SDS011;41554;45.366;20.400;2022-12-16T16:32:49;12.18;;;7.88;;
55672;SDS011;41554;45.366;20.400;2022-12-16T16:35:33;15.32;;;10.10;;
55672;SDS011;41554;45.366;20.400;2022-12-16T16:38:17;17.67;;;8.93;;
55672;SDS011;41554;45.366;20.400;2022-12-16T16:41:02;21.02;;;9.68;;
55672;SDS011;41554;45.366;20.400;2022-12-16T16:43:46;14.52;;;8.85;;
55672;SDS011;41554;45.366;20.400;2022-12-16T16:52:28;21.00;;;12.88;;
55672;SDS011;41554;45.366;20.400;2022-12-16T16:55:16;14.82;;;11.50;;
55672;SDS011;41554;45.366;20.400;2022-12-16T16:58:27;25.40;;;19.67;;
55672;SDS011;41554;45.366;20.400;2022-12-16T17:01:12;26.30;;;17.58;;
55672;SDS011;41554;45.366;20.400;2022-12-16T17:03:57;19.23;;;15.82;;
55672;SDS011;41554;45.366;20.400;2022-12-16T17:06:41;36.53;;;14.55;;
55672;SDS011;41554;45.366;20.400;2022-12-16T17:09:26;27.65;;;18.33;;
55672;SDS011;41554;45.366;20.400;2022-12-16T17:12:15;20.50;;;13.13;;
55672;SDS011;41554;45.366;20.400;2022-12-16T17:15:12;15.23;;;10.02;;
55672;SDS011;41554;45.366;20.400;2022-12-16T17:17:59;19.85;;;14.43;;
55672;SDS011;41554;45.366;20.400;2022-12-16T17:20:43;20.95;;;13.38;;
55672;SDS011;41554;45.366;20.400;2022-12-16T17:23:28;15.80;;;11.77;;
55672;SDS011;41554;45.366;20.400;2022-12-16T17:26:12;19.60;;;10.63;;
55672;SDS011;41554;45.366;20.400;2022-12-16T17:28:56;13.65;;;10.30;;
55672;SDS011;41554;45.366;20.400;2022-12-16T17:31:41;22.20;;;10.65;;
55672;SDS011;41554;45.366;20.400;2022-12-16T17:34:25;17.50;;;11.50;;
55672;SDS011;41554;45.366;20.400;2022-12-16T17:37:09;13.90;;;9.63;;
55672;SDS011;41554;45.366;20.400;2022-12-16T17:39:53;16.30;;;10.30;;
55672;SDS011;41554;45.366;20.400;2022-12-16T17:42:37;16.92;;;9.98;;
55672;SDS011;41554;45.366;20.400;2022-12-16T17:45:21;15.77;;;10.20;;
55672;SDS011;41554;45.366;20.400;2022-12-16T17:48:05;13.05;;;10.00;;
55672;SDS011;41554;45.366;20.400;2022-12-16T17:50:49;14.45;;;8.70;;
55672;SDS011;41554;45.366;20.400;2022-12-16T17:53:33;16.17;;;8.82;;
55672;SDS011;41554;45.366;20.400;2022-12-16T17:56:18;13.32;;;10.45;;
55672;SDS011;41554;45.366;20.400;2022-12-16T17:59:02;14.27;;;10.70;;
55672;SDS011;41554;45.366;20.400;2022-12-16T18:01:46;18.33;;;12.05;;
55672;SDS011;41554;45.366;20.400;2022-12-16T18:04:30;16.83;;;11.07;;
55672;SDS011;41554;45.366;20.400;2022-12-16T18:07:14;22.90;;;10.73;;
55672;SDS011;41554;45.366;20.400;2022-12-16T18:09:58;21.13;;;10.98;;
55672;SDS011;41554;45.366;20.400;2022-12-16T18:12:42;17.77;;;12.27;;
55672;SDS011;41554;45.366;20.400;2022-12-16T18:15:27;16.25;;;8.82;;
55672;SDS011;41554;45.366;20.400;2022-12-16T18:18:11;18.90;;;11.65;;
55672;SDS011;41554;45.366;20.400;2022-12-16T18:20:55;24.83;;;15.48;;
55672;SDS011;41554;45.366;20.400;2022-12-16T18:23:39;14.27;;;9.70;;
55672;SDS011;41554;45.366;20.400;2022-12-16T18:26:23;17.23;;;10.35;;
55672;SDS011;41554;45.366;20.400;2022-12-16T18:29:07;19.25;;;12.23;;
55672;SDS011;41554;45.366;20.400;2022-12-16T18:32:02;25.48;;;11.93;;
55672;SDS011;41554;45.366;20.400;2022-12-16T18:34:46;15.07;;;11.07;;
55672;SDS011;41554;45.366;20.400;2022-12-16T18:37:30;18.60;;;11.18;;
55672;SDS011;41554;45.366;20.400;2022-12-16T18:40:15;18.92;;;11.50;;